Time;durP1;ratioP1;P1;durP2;ratioP2;P2;SDS_P1;SDS_P2;PMS_P1;PMS_P2;Temp;Humidity;BMP_temperature;BMP_pressure;BME280_temperature;BME280_humidity;BME280_pressure;Samples;Min_cycle;Max_cycle;Signal;HPM_P1;HPM_P2
2021/12/04 00:01:24;;;;;;;28.85;14.10;;;;;;;-3.58;83.26;97495.13;1656959;84;20999;-79
2021/12/04 00:03:52;;;;;;;29.12;14.53;;;;;;;-3.57;83.29;97493.02;1691618;84;21034;-80
2021/12/04 00:06:24;;;;;;;27.93;13.55;;;;;;;-3.58;82.84;97494.72;1692458;84;21000;-80
2021/12/04 00:08:47;;;;;;;30.48;13.60;;;;;;;-3.58;82.76;97490.84;1638566;86;21434;-80
2021/12/04 00:11:18;;;;;;;30.65;13.00;;;;;;;-3.55;82.41;97493.91;1667734;85;21477;-80
2021/12/04 00:13:44;;;;;;;29.72;14.45;;;;;;;-3.57;82.29;97491.72;1700020;83;21004;-80
2021/12/04 00:16:11;;;;;;;32.10;15.68;;;;;;;-3.58;82.15;97492.13;1701168;83;21411;-79
2021/12/04 00:18:38;;;;;;;38.38;17.23;;;;;;;-3.61;81.79;97499.84;1701169;83;21032;-80
2021/12/04 00:21:05;;;;;;;34.43;15.53;;;;;;;-3.72;81.58;97503.54;1701172;83;21423;-80
2021/12/04 00:23:31;;;;;;;36.00;16.65;;;;;;;-3.76;81.51;97498.25;1701180;83;21106;-80
2021/12/04 00:25:57;;;;;;;35.58;15.28;;;;;;;-3.82;81.79;97501.59;1702339;83;21031;-80
2021/12/04 00:28:24;;;;;;;32.63;15.60;;;;;;;-3.85;81.96;97506.28;1700099;83;21507;-80
2021/12/04 00:30:50;;;;;;;32.45;15.28;;;;;;;-3.85;81.88;97495.08;1702300;82;21072;-80
2021/12/04 00:33:24;;;;;;;32.55;15.38;;;;;;;-3.88;82.10;97497.19;1701362;83;20980;-80
2021/12/04 00:35:56;;;;;;;43.80;16.80;;;;;;;-3.83;82.07;97496.41;1700563;83;21125;-80
2021/12/04 00:49:12;;;;;;;38.30;15.60;;;;;;;-3.92;81.82;97501.84;1675832;85;21040;-79
2021/12/04 00:51:45;;;;;;;34.70;17.60;;;;;;;-3.95;81.78;97497.88;1699737;84;21469;-79
2021/12/04 00:54:13;;;;;;;26.65;14.20;;;;;;;-3.94;82.08;97506.54;1699552;84;21417;-79
2021/12/04 00:56:42;;;;;;;42.53;22.62;;;;;;;-3.98;81.65;97509.05;1699439;84;21075;-79
2021/12/04 00:59:10;;;;;;;41.45;17.70;;;;;;;-4.02;81.70;97515.45;1699587;84;21016;-79
2021/12/04 01:01:42;;;;;;;29.82;14.40;;;;;;;-4.12;81.81;97514.36;1699190;83;21039;-79
2021/12/04 01:04:16;;;;;;;28.75;13.50;;;;;;;-4.15;81.63;97513.03;1691724;85;21001;-79
2021/12/04 01:06:43;;;;;;;24.67;12.75;;;;;;;-4.20;81.83;97512.06;1691767;85;21000;-80
2021/12/04 01:09:13;;;;;;;27.67;13.83;;;;;;;-4.20;82.08;97512.06;1691493;85;21505;-79
2021/12/04 01:11:44;;;;;;;24.77;12.33;;;;;;;-4.16;82.06;97521.64;1691680;85;21060;-79
2021/12/04 01:14:15;;;;;;;23.18;10.98;;;;;;;-4.17;81.91;97514.69;1682123;85;20988;-80
2021/12/04 01:16:41;;;;;;;24.23;11.28;;;;;;;-4.17;81.91;97513.40;1681807;85;21068;-79
2021/12/04 01:19:09;;;;;;;23.12;11.08;;;;;;;-4.21;81.71;97514.17;1691721;85;21398;-80
2021/12/04 01:21:36;;;;;;;29.85;14.35;;;;;;;-4.24;82.12;97500.34;1691658;85;21001;-80
2021/12/04 01:24:03;;;;;;;25.68;11.50;;;;;;;-4.24;82.29;97501.63;1682207;85;21033;-80
2021/12/04 01:26:29;;;;;;;27.35;12.50;;;;;;;-4.24;82.21;97504.22;1685119;85;21013;-80
2021/12/04 01:28:56;;;;;;;30.32;14.65;;;;;;;-4.23;82.28;97505.11;1683367;85;21106;-79
2021/12/04 01:31:23;;;;;;;28.02;13.10;;;;;;;-4.25;82.31;97510.24;1681827;85;21076;-80
2021/12/04 01:33:49;;;;;;;24.95;11.30;;;;;;;-4.24;82.34;97517.16;1691666;85;21008;-80
2021/12/04 01:36:16;;;;;;;31.23;13.62;;;;;;;-4.25;82.04;97496.42;1691668;85;21559;-79
2021/12/04 01:38:43;;;;;;;28.57;13.75;;;;;;;-4.30;82.05;97496.74;1691432;85;21019;-80
2021/12/04 01:41:10;;;;;;;33.75;14.68;;;;;;;-4.31;82.30;97489.83;1691586;85;21020;-80
2021/12/04 01:43:37;;;;;;;34.08;15.00;;;;;;;-4.35;82.29;97489.30;1682191;85;21024;-81
2021/12/04 01:46:05;;;;;;;28.60;13.50;;;;;;;-4.43;82.04;97496.90;1691290;85;21028;-80
2021/12/04 01:48:31;;;;;;;22.32;12.50;;;;;;;-4.45;82.16;97490.39;1682068;85;21402;-80
2021/12/04 01:50:59;;;;;;;27.07;12.13;;;;;;;-4.52;82.01;97479.03;1681843;85;21032;-80
2021/12/04 01:53:26;;;;;;;26.23;13.18;;;;;;;-4.55;82.27;97476.41;1691686;85;21047;-80
2021/12/04 01:55:56;;;;;;;28.32;12.82;;;;;;;-4.54;82.38;97479.84;1691647;85;21520;-79
2021/12/04 01:58:25;;;;;;;26.85;13.08;;;;;;;-4.55;82.41;97484.57;1691607;85;21020;-80
2021/12/04 02:00:52;;;;;;;26.62;12.65;;;;;;;-4.56;82.04;97477.66;1691661;85;21439;-80
2021/12/04 02:03:20;;;;;;;29.32;12.85;;;;;;;-4.54;82.37;97470.80;1695849;84;21019;-80
2021/12/04 02:05:49;;;;;;;26.87;12.68;;;;;;;-4.55;82.39;97466.06;1699219;84;21429;-80
2021/12/04 02:08:20;;;;;;;27.37;11.80;;;;;;;-4.56;82.10;97463.03;1699262;84;21637;-80
2021/12/04 02:10:53;;;;;;;23.73;11.63;;;;;;;-4.62;81.92;97462.87;1691611;84;21000;-80
2021/12/04 02:13:21;;;;;;;27.05;13.38;;;;;;;-4.68;82.05;97457.16;1673434;84;21137;-79
2021/12/04 02:15:48;;;;;;;27.67;13.08;;;;;;;-4.72;82.17;97462.21;1663133;86;21041;-80
2021/12/04 02:18:19;;;;;;;33.48;13.28;;;;;;;-4.79;82.64;97456.03;1670810;84;21020;-79
2021/12/04 02:20:46;;;;;;;31.15;14.10;;;;;;;-4.85;82.65;97457.19;1698718;84;21020;-79
2021/12/04 02:23:13;;;;;;;26.37;12.63;;;;;;;-4.92;82.93;97449.71;1699190;84;21000;-79
2021/12/04 02:25:40;;;;;;;30.70;13.32;;;;;;;-4.92;82.50;97441.95;1699355;84;21456;-79
2021/12/04 02:28:08;;;;;;;27.70;13.25;;;;;;;-4.94;83.29;97445.79;1699009;84;21031;-79
2021/12/04 02:30:39;;;;;;;22.50;11.88;;;;;;;-4.94;82.78;97452.69;1699111;84;21039;-79
2021/12/04 02:33:13;;;;;;;27.70;11.80;;;;;;;-4.92;82.80;97451.00;1698683;84;21004;-80
2021/12/04 02:35:49;;;;;;;27.20;12.73;;;;;;;-4.90;82.75;97455.80;1699162;84;21054;-79
2021/12/04 02:38:19;;;;;;;22.73;11.73;;;;;;;-4.95;82.69;97448.34;1699161;84;21043;-79
2021/12/04 02:40:46;;;;;;;22.67;11.65;;;;;;;-4.98;82.57;97443.11;1699233;84;21011;-79
2021/12/04 02:43:13;;;;;;;23.65;11.43;;;;;;;-4.98;82.60;97447.84;1699265;84;21090;-79
2021/12/04 02:45:42;;;;;;;25.40;12.25;;;;;;;-5.05;82.51;97442.98;1709319;84;21007;-79
2021/12/04 02:48:09;;;;;;;23.73;11.73;;;;;;;-5.04;82.58;97443.84;1709360;84;21027;-79
2021/12/04 02:50:36;;;;;;;26.52;12.65;;;;;;;-5.02;82.70;97442.59;1709286;84;20986;-79
2021/12/04 02:53:02;;;;;;;25.55;12.82;;;;;;;-5.06;83.09;97441.64;1709423;84;21538;-79
2021/12/04 02:55:29;;;;;;;28.55;12.55;;;;;;;-5.10;82.86;97446.28;1709401;84;21432;-79
2021/12/04 02:57:55;;;;;;;23.18;11.63;;;;;;;-5.21;82.86;97443.03;1709311;84;20999;-79
2021/12/04 03:00:26;;;;;;;25.32;12.15;;;;;;;-5.28;83.20;97442.84;1709418;84;20977;-80
2021/12/04 03:02:55;;;;;;;28.20;12.33;;;;;;;-5.30;83.05;97442.40;1702002;84;21091;-79
2021/12/04 03:05:26;;;;;;;26.35;11.68;;;;;;;-5.32;82.95;97449.22;1681703;85;21068;-79
2021/12/04 03:07:57;;;;;;;29.70;11.78;;;;;;;-5.37;82.86;97440.48;1681575;85;21111;-79
2021/12/04 03:10:25;;;;;;;24.25;11.68;;;;;;;-5.36;82.88;97438.79;1681517;85;21040;-79
2021/12/04 03:12:52;;;;;;;23.15;11.60;;;;;;;-5.37;82.97;97437.02;1681656;84;21080;-80
2021/12/04 03:15:21;;;;;;;21.15;10.18;;;;;;;-5.37;82.75;97435.72;1681547;85;21036;-80
2021/12/04 03:17:50;;;;;;;23.60;11.08;;;;;;;-5.37;82.90;97433.14;1681499;85;21000;-80
2021/12/04 03:20:18;;;;;;;27.85;11.38;;;;;;;-5.33;82.75;97431.09;1681343;85;20969;-80
2021/12/04 03:22:46;;;;;;;24.05;11.43;;;;;;;-5.34;82.65;97428.95;1681584;85;20985;-79
2021/12/04 03:25:16;;;;;;;22.90;10.55;;;;;;;-5.37;82.50;97422.81;1681667;85;21028;-79
2021/12/04 03:27:45;;;;;;;24.63;11.55;;;;;;;-5.38;82.56;97408.16;1681696;85;20981;-79
2021/12/04 03:30:21;;;;;;;20.05;10.58;;;;;;;-5.40;82.59;97413.28;1681832;85;21052;-79
2021/12/04 03:35:23;;;;;;;23.73;11.15;;;;;;;-5.43;82.45;97410.64;1681650;85;21017;-79
2021/12/04 03:43:11;;;;;;;23.45;10.78;;;;;;;-5.47;82.41;97413.58;1681663;85;21024;-79
2021/12/04 03:45:40;;;;;;;23.45;10.72;;;;;;;-5.48;82.41;97413.09;1681643;85;21625;-79
2021/12/04 03:48:29;;;;;;;25.30;10.95;;;;;;;-5.50;82.28;97419.06;1681909;85;21013;-79
2021/12/04 03:50:38;;;;;;;20.27;9.93;;;;;;;-5.58;82.03;97420.16;1678334;85;21060;-79
2021/12/04 03:53:06;;;;;;;25.05;11.50;;;;;;;-5.61;82.28;97420.96;1681469;85;21112;-80
2021/12/04 03:55:32;;;;;;;26.07;11.50;;;;;;;-5.60;82.37;97416.69;1681687;85;21044;-80
2021/12/04 03:57:59;;;;;;;22.35;10.70;;;;;;;-5.58;82.49;97412.42;1681165;85;21033;-79
2021/12/04 04:00:28;;;;;;;23.10;10.43;;;;;;;-5.62;82.18;97405.02;1680807;85;21558;-78
2021/12/04 04:02:57;;;;;;;23.35;9.95;;;;;;;-5.61;82.27;97402.89;1678533;84;21032;-78
2021/12/04 04:05:24;;;;;;;22.82;10.38;;;;;;;-5.66;81.95;97405.77;1667456;86;21447;-78
2021/12/04 04:07:50;;;;;;;20.65;10.30;;;;;;;-5.71;82.25;97404.78;1667867;86;21017;-78
2021/12/04 04:10:16;;;;;;;23.83;11.00;;;;;;;-5.65;82.20;97408.80;1668131;86;21016;-79
2021/12/04 04:12:43;;;;;;;20.57;10.08;;;;;;;-5.69;82.09;97407.01;1667860;86;21051;-79
2021/12/04 04:15:10;;;;;;;22.37;10.10;;;;;;;-5.70;82.18;97402.25;1667991;86;21537;-79
2021/12/04 04:17:42;;;;;;;23.40;11.18;;;;;;;-5.70;82.13;97404.83;1667784;86;21159;-79
2021/12/04 04:20:07;;;;;;;22.52;10.55;;;;;;;-5.75;81.92;97406.83;1667310;84;21033;-79
2021/12/04 04:22:35;;;;;;;21.00;10.40;;;;;;;-5.77;82.14;97402.05;1667632;86;21015;-79
2021/12/04 04:25:02;;;;;;;22.17;10.68;;;;;;;-5.79;82.06;97404.59;1668232;86;21016;-79
2021/12/04 04:27:28;;;;;;;20.02;10.48;;;;;;;-5.79;82.06;97402.41;1667955;86;21059;-80
2021/12/04 04:29:55;;;;;;;23.55;10.48;;;;;;;-5.79;82.21;97400.72;1668178;86;21477;-79
2021/12/04 04:32:23;;;;;;;23.95;10.80;;;;;;;-5.79;82.09;97392.09;1668181;86;21044;-78
2021/12/04 04:34:53;;;;;;;22.87;10.23;;;;;;;-5.77;82.28;97404.64;1668114;86;21067;-78
2021/12/04 04:58:58;;;;;;;19.55;9.73;;;;;;;-5.89;81.77;97403.91;1668298;86;21043;-79
2021/12/04 05:12:35;;;;;;;21.40;10.40;;;;;;;-5.88;81.69;97404.35;1680812;85;21019;-79
2021/12/04 05:14:57;;;;;;;22.58;9.78;;;;;;;-5.89;81.83;97411.23;1688688;84;21038;-79
2021/12/04 05:17:31;;;;;;;20.85;9.78;;;;;;;-5.88;81.60;97418.55;1708909;84;21418;-80
2021/12/04 05:19:55;;;;;;;;;;;;;;;-5.96;81.57;97419.23;1711749;84;21413;-80
2021/12/04 05:22:23;;;;;;;18.57;10.13;;;;;;;-5.97;81.61;97417.89;1709423;84;20079;-80
2021/12/04 05:24:50;;;;;;;19.00;9.78;;;;;;;-6.01;81.75;97423.40;1709455;84;21046;-80
2021/12/04 05:27:18;;;;;;;21.15;9.73;;;;;;;-5.99;81.82;97421.72;1709534;84;21002;-79
2021/12/04 05:29:45;;;;;;;22.93;10.63;;;;;;;-6.06;81.48;97423.73;1709405;84;21046;-79
2021/12/04 05:32:12;;;;;;;20.02;10.13;;;;;;;-6.08;81.57;97418.92;1709397;84;21045;-79
2021/12/04 05:34:38;;;;;;;21.52;10.18;;;;;;;-6.10;81.61;97424.03;1709316;83;21433;-79
2021/12/04 05:37:07;;;;;;;23.07;10.25;;;;;;;-6.17;81.46;97424.72;1709073;84;21023;-79
2021/12/04 05:39:34;;;;;;;19.92;10.03;;;;;;;-6.21;81.67;97426.75;1709528;84;21071;-79
2021/12/04 05:42:01;;;;;;;27.82;11.70;;;;;;;-6.19;81.76;97424.22;1709151;84;21067;-78
2021/12/04 05:44:30;;;;;;;23.67;11.22;;;;;;;-6.19;81.77;97422.49;1709225;82;21776;-79
2021/12/04 05:47:08;;;;;;;23.20;10.53;;;;;;;-6.19;81.78;97429.38;1709407;84;21015;-78
2021/12/04 05:49:45;;;;;;;22.30;11.50;;;;;;;-6.18;81.71;97424.67;1708202;84;20960;-80
2021/12/04 05:52:20;;;;;;;24.77;10.55;;;;;;;-6.22;81.56;97432.75;1705035;84;22180;-79
2021/12/04 05:57:12;;;;;;;25.00;10.90;;;;;;;-6.25;81.53;97429.66;1709314;84;21027;-78
2021/12/04 05:59:39;;;;;;;24.30;11.13;;;;;;;-6.27;81.71;97426.16;1709432;84;21042;-78
2021/12/04 06:02:06;;;;;;;22.80;11.22;;;;;;;-6.26;81.64;97424.46;1709362;84;21008;-78
2021/12/04 06:04:33;;;;;;;26.42;11.80;;;;;;;-6.26;81.67;97424.46;1697627;83;21024;-78
2021/12/04 06:06:59;;;;;;;28.73;11.30;;;;;;;-6.26;81.91;97430.50;1691362;85;21028;-79
2021/12/04 06:09:26;;;;;;;26.97;12.13;;;;;;;-6.20;81.87;97425.91;1691469;84;20945;-78
2021/12/04 06:11:52;;;;;;;25.95;11.70;;;;;;;-6.18;81.61;97432.41;1691170;85;20992;-79
2021/12/04 06:14:19;;;;;;;32.48;14.50;;;;;;;-6.25;81.62;97424.51;1691285;85;21043;-78
2021/12/04 06:16:45;;;;;;;30.72;14.38;;;;;;;-6.27;81.42;97423.58;1691401;84;21020;-78
2021/12/04 06:24:38;;;;;;;28.90;13.20;;;;;;;-6.28;81.50;97419.66;1691185;84;20972;-79
2021/12/04 06:27:05;;;;;;;24.07;12.05;;;;;;;-6.26;81.76;97420.59;1691430;85;21016;-78
2021/12/04 06:29:31;;;;;;;21.15;11.30;;;;;;;-6.14;81.93;97432.52;1691182;85;20985;-79
2021/12/04 06:31:58;;;;;;;27.20;11.18;;;;;;;-6.03;81.37;97435.40;1691324;84;21472;-78
2021/12/04 06:34:24;;;;;;;25.20;11.50;;;;;;;-5.96;81.41;97432.14;1691291;84;21032;-79
2021/12/04 06:36:51;;;;;;;21.70;11.57;;;;;;;-5.91;80.96;97431.36;1691312;85;21390;-79
2021/12/04 06:39:17;;;;;;;23.07;10.78;;;;;;;-5.94;80.74;97420.53;1691168;84;21047;-78
2021/12/04 06:41:44;;;;;;;25.72;10.98;;;;;;;-5.86;81.16;97416.46;1691434;85;21030;-78
2021/12/04 06:44:10;;;;;;;22.52;11.68;;;;;;;-5.78;81.16;97412.78;1691297;85;21453;-79
2021/12/04 06:46:37;;;;;;;22.65;10.68;;;;;;;-5.71;81.13;97413.41;1691295;85;21012;-78
2021/12/04 06:49:15;;;;;;;23.32;11.95;;;;;;;-5.62;81.19;97408.01;1691386;84;21067;-79
2021/12/04 06:51:40;;;;;;;21.37;11.08;;;;;;;-5.55;80.78;97407.34;1689713;85;20973;-78
2021/12/04 06:56:41;;;;;;;29.67;11.90;;;;;;;-5.45;80.60;97404.14;1691324;85;21007;-79
2021/12/04 06:59:08;;;;;;;26.05;11.53;;;;;;;-5.38;80.77;97402.59;1689389;85;21470;-78
2021/12/04 07:01:38;;;;;;;23.98;12.23;;;;;;;-5.26;80.48;97400.72;1691331;85;21017;-78
2021/12/04 07:04:06;;;;;;;24.30;12.65;;;;;;;-5.14;80.17;97396.25;1688140;85;21040;-79
2021/12/04 07:06:33;;;;;;;26.48;12.33;;;;;;;-5.09;80.31;97393.35;1681664;85;21482;-77
2021/12/04 07:09:01;;;;;;;24.67;12.23;;;;;;;-5.02;80.47;97390.49;1681516;85;21387;-78
2021/12/04 07:11:28;;;;;;;32.53;13.40;;;;;;;-4.93;80.37;97387.23;1681550;85;21084;-78
2021/12/04 07:13:56;;;;;;;27.62;12.70;;;;;;;-4.87;80.27;97384.77;1681488;85;21067;-79
2021/12/04 07:16:25;;;;;;;31.48;12.70;;;;;;;-4.80;79.94;97381.91;1681714;85;21094;-78
2021/12/04 07:18:51;;;;;;;27.60;12.85;;;;;;;-4.71;80.05;97373.46;1681463;85;21005;-79
2021/12/04 07:21:18;;;;;;;29.87;14.05;;;;;;;-4.68;79.81;97392.52;1681498;85;21521;-79
2021/12/04 07:23:46;;;;;;;29.25;14.07;;;;;;;-4.56;80.10;97389.32;1681525;85;21051;-79
2021/12/04 07:26:15;;;;;;;33.92;15.08;;;;;;;-4.46;79.89;97395.53;1681574;85;21052;-79
2021/12/04 07:28:42;;;;;;;30.52;15.18;;;;;;;-4.40;79.78;97394.80;1681490;85;21008;-78
2021/12/04 07:31:09;;;;;;;30.80;13.93;;;;;;;-4.31;79.58;97399.27;1681746;84;21036;-79
2021/12/04 07:33:36;;;;;;;31.85;14.18;;;;;;;-4.26;79.40;97388.19;1681658;85;21040;-79
2021/12/04 07:36:04;;;;;;;29.30;14.65;;;;;;;-4.20;78.37;97390.44;1681479;85;21056;-79
2021/12/04 07:38:31;;;;;;;28.62;15.28;;;;;;;-4.11;79.08;97390.17;1654123;87;21068;-78
2021/12/04 07:41:01;;;;;;;33.28;16.40;;;;;;;-4.03;79.31;97391.61;1653977;87;21053;-78
2021/12/04 07:43:28;;;;;;;27.48;14.07;;;;;;;-3.94;78.98;97384.45;1654080;87;21566;-78
2021/12/04 07:45:55;;;;;;;31.07;15.13;;;;;;;-3.82;78.91;97384.22;1654142;86;21008;-79
2021/12/04 07:48:21;;;;;;;33.15;14.18;;;;;;;-3.69;79.28;97385.30;1679855;85;21052;-78
2021/12/04 07:50:49;;;;;;;25.80;13.53;;;;;;;-3.58;78.86;97380.75;1681511;85;21056;-78
2021/12/04 07:53:16;;;;;;;27.27;13.95;;;;;;;-3.53;77.64;97379.52;1681689;85;21037;-78
2021/12/04 07:55:42;;;;;;;31.77;16.07;;;;;;;-3.48;77.52;97376.58;1681557;85;22153;-78
2021/12/04 07:58:09;;;;;;;31.87;15.03;;;;;;;-3.40;78.13;97378.02;1681412;84;21069;-78
2021/12/04 08:00:36;;;;;;;33.28;16.25;;;;;;;-3.24;78.62;97366.59;1681628;85;21458;-79
2021/12/04 08:03:02;;;;;;;33.45;16.70;;;;;;;-3.06;78.60;97372.47;1681324;85;21040;-80
2021/12/04 08:05:29;;;;;;;35.43;16.25;;;;;;;-2.92;78.16;97367.47;1681618;84;21025;-80
2021/12/04 08:07:57;;;;;;;33.28;18.00;;;;;;;-2.84;78.01;97358.08;1681644;85;21490;-79
2021/12/04 08:10:25;;;;;;;34.60;16.12;;;;;;;-2.75;78.21;97362.51;1685353;84;21027;-79
2021/12/04 08:12:52;;;;;;;35.17;16.50;;;;;;;-2.61;78.48;97359.23;1649727;86;21921;-79
2021/12/04 08:15:19;;;;;;;32.00;17.07;;;;;;;-2.46;78.42;97362.45;1648655;86;21042;-79
2021/12/04 08:17:46;;;;;;;35.00;17.75;;;;;;;-2.32;78.40;97360.86;1681192;84;21017;-80
2021/12/04 08:20:15;;;;;;;34.53;17.20;;;;;;;-2.19;78.01;97358.41;1681405;85;21073;-80
2021/12/04 08:22:43;;;;;;;39.30;18.20;;;;;;;-2.05;78.14;97350.77;1681519;85;21044;-79
2021/12/04 08:25:15;;;;;;;35.25;16.87;;;;;;;-1.99;78.17;97346.95;1681487;85;21037;-78
2021/12/04 08:27:42;;;;;;;37.23;18.23;;;;;;;-1.93;78.05;97348.30;1681266;85;21036;-78
2021/12/04 08:30:16;;;;;;;36.28;18.05;;;;;;;-1.84;77.80;97345.36;1681316;85;20985;-78
2021/12/04 08:32:44;;;;;;;42.40;19.52;;;;;;;-1.78;77.99;97346.70;1650357;86;21472;-79
2021/12/04 08:35:14;;;;;;;33.67;18.10;;;;;;;-1.70;77.79;97348.95;1650947;86;21022;-78
2021/12/04 08:37:41;;;;;;;33.53;16.87;;;;;;;-1.62;77.96;97342.52;1650693;86;21074;-78
2021/12/04 08:40:13;;;;;;;31.23;16.05;;;;;;;-1.58;77.74;97337.77;1680866;83;21031;-78
2021/12/04 08:42:41;;;;;;;26.50;14.03;;;;;;;-1.52;78.01;97336.95;1681109;85;21057;-80
2021/12/04 08:45:13;;;;;;;28.07;14.70;;;;;;;-1.42;78.42;97326.22;1680218;85;21045;-79
2021/12/04 08:47:41;;;;;;;25.85;13.00;;;;;;;-1.35;78.25;97322.78;1679745;85;21029;-78
2021/12/04 08:50:14;;;;;;;28.35;14.47;;;;;;;-1.25;78.11;97325.03;1681047;85;21151;-78
2021/12/04 08:52:42;;;;;;;24.32;13.13;;;;;;;-1.18;78.48;97310.31;1681265;85;20965;-79
2021/12/04 08:55:10;;;;;;;26.15;13.62;;;;;;;-1.09;78.26;97305.17;1680472;85;21016;-79
2021/12/04 08:57:38;;;;;;;30.62;14.43;;;;;;;-0.96;78.35;97314.79;1681191;84;21000;-81
2021/12/04 09:00:10;;;;;;;24.15;13.70;;;;;;;-0.81;78.02;97311.83;1681196;85;22054;-80
2021/12/04 09:02:38;;;;;;;27.05;14.00;;;;;;;-0.68;77.86;97312.33;1681654;85;21016;-79
2021/12/04 09:05:09;;;;;;;30.43;15.20;;;;;;;-0.55;77.54;97309.76;1694658;84;21031;-80
2021/12/04 09:07:37;;;;;;;35.03;17.00;;;;;;;-0.45;77.14;97306.32;1708337;84;21464;-81
2021/12/04 09:10:08;;;;;;;30.37;16.97;;;;;;;-0.36;76.99;97304.62;1708410;84;21019;-80
2021/12/04 09:12:38;;;;;;;35.85;18.27;;;;;;;-0.33;76.62;97308.55;1701156;84;21019;-80
2021/12/04 09:15:10;;;;;;;37.38;18.37;;;;;;;-0.29;76.73;97302.03;1708653;84;21003;-80
2021/12/04 09:17:37;;;;;;;30.12;17.23;;;;;;;-0.28;76.50;97305.52;1705647;82;21071;-81
2021/12/04 09:20:07;;;;;;;31.68;16.57;;;;;;;-0.27;76.76;97304.65;1708572;84;20995;-81
2021/12/04 09:22:37;;;;;;;33.35;17.57;;;;;;;-0.25;76.64;97308.56;1708568;82;21015;-83
2021/12/04 09:25:13;;;;;;;31.55;16.73;;;;;;;-0.20;76.69;97301.17;1709421;84;21031;-80
2021/12/04 09:28:28;;;;;;;29.90;14.07;;;;;;;-0.24;76.31;97295.55;1709407;84;21019;-81
2021/12/04 09:31:09;;;;;;;26.82;16.12;;;;;;;-0.28;76.31;97292.05;1700897;84;21007;-80
2021/12/04 09:33:03;;;;;;;25.35;14.20;;;;;;;-0.34;76.57;97289.44;1707590;84;21024;-81
2021/12/04 09:35:28;;;;;;;29.00;15.98;;;;;;;-0.37;76.83;97279.03;1701505;82;21066;-84
2021/12/04 10:00:04;;;;;;;22.87;12.45;;;;;;;-0.08;77.11;97236.97;1708990;84;21114;-77
2021/12/04 10:02:35;;;;;;;22.73;12.25;;;;;;;-0.01;76.94;97238.27;1708186;84;21480;-74
2021/12/04 10:19:04;;;;;;;20.57;11.30;;;;;;;0.13;76.15;97220.48;1584934;90;21455;-83
2021/12/04 10:35:08;;;;;;;24.35;12.07;;;;;;;0.05;76.50;97214.39;1609812;89;21002;-81
2021/12/04 10:37:57;;;;;;;22.85;11.68;;;;;;;0.04;75.93;97211.36;1605017;89;21040;-84
2021/12/04 10:40:36;;;;;;;23.55;11.30;;;;;;;-0.03;75.93;97203.97;1609852;89;21033;-83
2021/12/04 10:43:00;;;;;;;24.87;12.10;;;;;;;-0.05;76.21;97200.06;1609062;89;21459;-82
2021/12/04 10:45:34;;;;;;;23.77;12.53;;;;;;;-0.03;76.03;97196.16;1609667;89;21114;-82
2021/12/04 10:48:08;;;;;;;24.25;12.13;;;;;;;-0.04;76.28;97190.52;1607776;89;21100;-83
2021/12/04 10:50:45;;;;;;;25.95;12.03;;;;;;;-0.01;76.23;97190.50;1606514;89;20994;-83
2021/12/04 10:53:18;;;;;;;24.20;12.30;;;;;;;0.01;76.24;97175.75;1583148;90;21101;-83
2021/12/04 11:01:14;;;;;;;24.60;11.88;;;;;;;0.07;76.06;97164.02;1591120;89;20997;-83
2021/12/04 11:03:44;;;;;;;26.85;13.05;;;;;;;0.07;75.98;97157.50;1605782;89;21058;-82
2021/12/04 11:38:52;;;;;;;22.90;12.85;;;;;;;0.19;75.29;97141.41;1655079;85;21461;-86
2021/12/04 11:41:20;;;;;;;23.22;11.70;;;;;;;0.22;75.20;97137.50;1687707;85;21433;-85
2021/12/04 11:43:54;;;;;;;23.42;11.38;;;;;;;0.18;74.76;97131.44;1688289;84;21040;-85
2021/12/04 11:46:23;;;;;;;23.83;12.23;;;;;;;0.13;74.83;97126.67;1688585;84;21008;-85
2021/12/04 11:48:56;;;;;;;25.45;13.70;;;;;;;0.09;75.13;97124.48;1688585;85;21506;-85
2021/12/04 11:51:26;;;;;;;26.62;14.20;;;;;;;0.11;75.06;97129.27;1688806;85;21068;-86
2021/12/04 11:53:56;;;;;;;29.95;14.63;;;;;;;0.11;75.39;97121.88;1688716;85;21095;-82
2021/12/04 11:56:28;;;;;;;29.00;14.45;;;;;;;0.11;74.85;97113.64;1688867;85;21056;-81
2021/12/04 11:58:57;;;;;;;28.90;14.87;;;;;;;0.12;75.03;97112.77;1687827;85;21055;-81
2021/12/04 12:01:35;;;;;;;27.30;14.83;;;;;;;0.10;75.12;97110.61;1688652;84;20972;-82
2021/12/04 12:04:10;;;;;;;26.25;12.98;;;;;;;0.15;75.51;97122.31;1688434;85;21064;-81
2021/12/04 12:06:43;;;;;;;23.12;12.63;;;;;;;0.22;75.07;97117.53;1695375;84;21031;-81
2021/12/04 12:09:21;;;;;;;27.82;12.43;;;;;;;0.20;74.96;97110.59;1672493;84;21056;-81
2021/12/04 12:12:05;;;;;;;30.50;13.40;;;;;;;0.17;74.78;97114.04;1698265;84;21067;-81
2021/12/04 12:14:45;;;;;;;27.07;13.93;;;;;;;0.20;74.98;97112.74;1698172;84;21067;-82
2021/12/04 12:17:11;;;;;;;24.45;13.28;;;;;;;0.21;75.08;97113.17;1674355;84;21043;-82
2021/12/04 12:19:43;;;;;;;26.45;13.43;;;;;;;0.28;75.38;97108.81;1694482;84;21722;-82
2021/12/04 12:23:11;;;;;;;25.12;13.65;;;;;;;0.36;75.46;97111.39;1692967;84;21004;-82
2021/12/04 12:33:27;;;;;;;27.98;13.13;;;;;;;0.62;75.14;97100.87;1708246;84;20150;-82
2021/12/04 12:36:13;;;;;;;23.75;12.13;;;;;;;0.71;74.92;97102.56;1709026;83;21004;-82
2021/12/04 12:38:53;;;;;;;24.37;12.50;;;;;;;0.75;74.46;97091.70;1708626;84;20999;-82
2021/12/04 12:41:42;;;;;;;24.55;13.10;;;;;;;0.81;74.75;97090.35;1704751;84;21064;-80
2021/12/04 12:44:26;;;;;;;26.85;13.03;;;;;;;0.97;74.91;97090.27;1709252;84;20960;-82
2021/12/04 12:47:07;;;;;;;25.80;13.75;;;;;;;1.02;74.00;97085.88;1681852;84;21178;-82
2021/12/04 12:49:43;;;;;;;23.60;13.43;;;;;;;1.10;73.97;97080.19;1705710;84;21059;-83
2021/12/04 12:52:31;;;;;;;27.48;13.68;;;;;;;1.12;73.76;97076.27;1708953;84;20991;-82
2021/12/04 12:55:07;;;;;;;24.05;12.93;;;;;;;1.07;73.73;97076.28;1709605;84;21135;-84
2021/12/04 12:57:42;;;;;;;23.73;12.55;;;;;;;1.11;73.85;97070.59;1709108;84;21054;-82
2021/12/04 13:12:13;;;;;;;24.43;13.28;;;;;;;1.08;73.83;97070.18;1692285;84;20988;-84
2021/12/04 13:14:45;;;;;;;28.30;14.75;;;;;;;0.98;73.73;97062.87;1689402;84;21008;-83
2021/12/04 13:17:29;;;;;;;24.15;12.43;;;;;;;0.91;73.77;97055.52;1692006;83;21004;-84
2021/12/04 13:19:58;;;;;;;25.52;12.47;;;;;;;0.87;73.92;97057.70;1679515;85;21016;-84
2021/12/04 13:22:30;;;;;;;24.92;13.00;;;;;;;0.76;73.97;97046.05;1677169;85;20989;-83
2021/12/04 13:25:02;;;;;;;25.62;13.45;;;;;;;0.69;74.70;97048.67;1694475;84;21064;-83
2021/12/04 13:30:09;;;;;;;25.43;13.43;;;;;;;0.56;74.75;97055.27;1691843;83;21004;-77
2021/12/04 13:32:43;;;;;;;26.73;14.15;;;;;;;0.53;75.04;97053.97;1657908;85;21029;-76
2021/12/04 13:35:21;;;;;;;29.20;13.83;;;;;;;0.49;75.30;97060.07;1658095;86;21081;-80
2021/12/04 13:38:00;;;;;;;24.75;12.93;;;;;;;0.46;75.11;97051.83;1680911;85;22114;-76
2021/12/04 13:40:30;;;;;;;25.85;13.25;;;;;;;0.48;75.04;97049.22;1685803;83;21113;-76
2021/12/04 13:43:00;;;;;;;29.05;14.20;;;;;;;0.46;75.23;97044.00;1682326;83;21068;-77
2021/12/04 13:45:32;;;;;;;27.55;13.55;;;;;;;0.48;75.25;97042.28;1691392;84;21064;-79
2021/12/04 13:47:59;;;;;;;25.48;12.85;;;;;;;0.42;75.38;97032.31;1691116;83;21374;-82
2021/12/04 13:53:08;;;;;;;26.75;14.73;;;;;;;0.39;75.70;97037.10;1678127;83;21005;-80
2021/12/04 13:55:39;;;;;;;26.68;13.30;;;;;;;0.37;75.39;97037.53;1657801;86;21053;-80
2021/12/04 13:58:06;;;;;;;30.00;14.60;;;;;;;0.29;75.71;97042.78;1659997;86;21494;-80
2021/12/04 14:00:33;;;;;;;26.37;13.78;;;;;;;0.29;75.82;97036.26;1677174;85;21079;-81
2021/12/04 14:03:01;;;;;;;26.93;14.00;;;;;;;0.25;75.75;97035.87;1690667;85;21059;-80
2021/12/04 14:05:28;;;;;;;25.48;13.58;;;;;;;0.21;75.83;97018.50;1689914;84;21083;-79
2021/12/04 14:08:02;;;;;;;28.25;14.70;;;;;;;0.23;75.85;97024.56;1689649;85;21059;-80
2021/12/04 14:10:33;;;;;;;28.50;14.05;;;;;;;0.20;75.91;97025.45;1691794;85;21020;-80
2021/12/04 14:13:03;;;;;;;25.62;14.20;;;;;;;0.20;76.09;97029.36;1691527;85;20937;-80
2021/12/04 14:15:30;;;;;;;32.42;14.43;;;;;;;0.22;76.30;97018.50;1691274;84;21060;-80
2021/12/04 14:18:05;;;;;;;27.30;13.48;;;;;;;0.20;76.58;97017.62;1690301;85;21000;-80
2021/12/04 14:20:33;;;;;;;30.20;14.38;;;;;;;0.18;76.20;97017.20;1691805;85;21063;-80
2021/12/04 14:23:01;;;;;;;27.00;13.93;;;;;;;0.15;76.49;97008.08;1691476;85;21016;-80
2021/12/04 14:25:28;;;;;;;29.42;14.65;;;;;;;0.11;76.64;97013.75;1691831;84;21051;-80